sensor_id;sensor_type;location;lat;lon;timestamp;P1;durP1;ratioP1;P2;durP2;ratioP2
30337;SDS011;17143;51.888;5.408;2022-10-30T00:14:00;9.97;;;4.80;;
30337;SDS011;17143;51.888;5.408;2022-10-30T00:29:02;15.33;;;4.80;;
30337;SDS011;17143;51.888;5.408;2022-10-30T00:59:36;9.63;;;4.23;;
30337;SDS011;17143;51.888;5.408;2022-10-30T01:14:40;11.00;;;4.30;;
30337;SDS011;17143;51.888;5.408;2022-10-30T01:29:54;10.83;;;4.57;;
30337;SDS011;17143;51.888;5.408;2022-10-30T01:45:00;11.20;;;4.20;;
30337;SDS011;17143;51.888;5.408;2022-10-30T02:00:03;9.63;;;4.13;;
30337;SDS011;17143;51.888;5.408;2022-10-30T02:15:14;6.27;;;4.00;;
30337;SDS011;17143;51.888;5.408;2022-10-30T02:30:17;12.27;;;4.40;;
30337;SDS011;17143;51.888;5.408;2022-10-30T02:45:19;7.77;;;4.60;;
30337;SDS011;17143;51.888;5.408;2022-10-30T03:00:23;11.77;;;4.43;;
30337;SDS011;17143;51.888;5.408;2022-10-30T03:15:25;9.03;;;5.10;;
30337;SDS011;17143;51.888;5.408;2022-10-30T03:30:27;10.07;;;5.23;;
30337;SDS011;17143;51.888;5.408;2022-10-30T03:45:30;14.77;;;5.23;;
30337;SDS011;17143;51.888;5.408;2022-10-30T04:00:33;11.30;;;4.93;;
30337;SDS011;17143;51.888;5.408;2022-10-30T04:15:37;16.00;;;5.40;;
30337;SDS011;17143;51.888;5.408;2022-10-30T04:30:40;9.23;;;5.53;;
30337;SDS011;17143;51.888;5.408;2022-10-30T04:45:42;9.07;;;5.37;;
30337;SDS011;17143;51.888;5.408;2022-10-30T05:00:45;9.67;;;5.50;;
30337;SDS011;17143;51.888;5.408;2022-10-30T05:15:49;10.97;;;5.27;;
30337;SDS011;17143;51.888;5.408;2022-10-30T05:30:52;10.57;;;4.83;;
30337;SDS011;17143;51.888;5.408;2022-10-30T05:46:26;8.53;;;4.73;;
30337;SDS011;17143;51.888;5.408;2022-10-30T06:01:32;9.53;;;4.70;;
30337;SDS011;17143;51.888;5.408;2022-10-30T06:16:38;7.30;;;4.80;;
30337;SDS011;17143;51.888;5.408;2022-10-30T06:31:52;13.77;;;5.60;;
30337;SDS011;17143;51.888;5.408;2022-10-30T06:46:54;9.00;;;5.30;;
30337;SDS011;17143;51.888;5.408;2022-10-30T07:01:57;9.17;;;4.73;;
30337;SDS011;17143;51.888;5.408;2022-10-30T07:17:00;7.03;;;4.27;;
30337;SDS011;17143;51.888;5.408;2022-10-30T07:32:05;11.00;;;5.53;;
30337;SDS011;17143;51.888;5.408;2022-10-30T07:47:18;9.13;;;5.13;;
30337;SDS011;17143;51.888;5.408;2022-10-30T08:02:36;10.63;;;5.77;;
30337;SDS011;17143;51.888;5.408;2022-10-30T08:17:57;14.33;;;6.43;;
30337;SDS011;17143;51.888;5.408;2022-10-30T08:33:00;14.33;;;6.10;;
30337;SDS011;17143;51.888;5.408;2022-10-30T08:48:23;16.40;;;7.37;;
30337;SDS011;17143;51.888;5.408;2022-10-30T09:03:25;14.13;;;8.47;;
30337;SDS011;17143;51.888;5.408;2022-10-30T09:18:33;18.47;;;8.80;;
30337;SDS011;17143;51.888;5.408;2022-10-30T09:33:35;17.93;;;10.27;;
30337;SDS011;17143;51.888;5.408;2022-10-30T10:04:27;16.87;;;6.87;;
30337;SDS011;17143;51.888;5.408;2022-10-30T10:19:51;13.13;;;7.33;;
30337;SDS011;17143;51.888;5.408;2022-10-30T10:35:02;12.30;;;7.07;;
30337;SDS011;17143;51.888;5.408;2022-10-30T10:50:20;15.40;;;7.40;;
30337;SDS011;17143;51.888;5.408;2022-10-30T11:05:28;17.00;;;7.47;;
30337;SDS011;17143;51.888;5.408;2022-10-30T11:20:37;17.87;;;7.83;;
30337;SDS011;17143;51.888;5.408;2022-10-30T11:35:42;18.17;;;8.60;;
30337;SDS011;17143;51.888;5.408;2022-10-30T11:50:45;13.80;;;6.93;;
30337;SDS011;17143;51.888;5.408;2022-10-30T12:05:49;16.90;;;7.53;;
30337;SDS011;17143;51.888;5.408;2022-10-30T12:20:52;17.23;;;8.83;;
30337;SDS011;17143;51.888;5.408;2022-10-30T12:35:57;16.47;;;7.00;;
30337;SDS011;17143;51.888;5.408;2022-10-30T12:51:04;17.37;;;7.23;;
30337;SDS011;17143;51.888;5.408;2022-10-30T13:06:14;15.93;;;8.67;;
30337;SDS011;17143;51.888;5.408;2022-10-30T13:21:21;14.70;;;8.03;;
30337;SDS011;17143;51.888;5.408;2022-10-30T13:36:28;17.43;;;8.03;;
30337;SDS011;17143;51.888;5.408;2022-10-30T13:51:39;14.67;;;7.20;;
30337;SDS011;17143;51.888;5.408;2022-10-30T14:06:45;15.63;;;8.00;;
30337;SDS011;17143;51.888;5.408;2022-10-30T14:21:55;17.20;;;7.67;;
30337;SDS011;17143;51.888;5.408;2022-10-30T14:36:57;14.40;;;7.13;;
30337;SDS011;17143;51.888;5.408;2022-10-30T14:52:06;20.97;;;7.13;;
30337;SDS011;17143;51.888;5.408;2022-10-30T15:07:17;14.60;;;6.60;;
30337;SDS011;17143;51.888;5.408;2022-10-30T15:22:25;16.60;;;6.50;;
30337;SDS011;17143;51.888;5.408;2022-10-30T15:37:30;17.70;;;7.40;;
30337;SDS011;17143;51.888;5.408;2022-10-30T15:52:32;10.83;;;7.20;;
30337;SDS011;17143;51.888;5.408;2022-10-30T16:07:35;16.77;;;8.57;;
30337;SDS011;17143;51.888;5.408;2022-10-30T16:22:46;13.93;;;6.07;;
30337;SDS011;17143;51.888;5.408;2022-10-30T16:37:48;7.40;;;2.93;;
30337;SDS011;17143;51.888;5.408;2022-10-30T16:52:50;6.33;;;2.80;;
30337;SDS011;17143;51.888;5.408;2022-10-30T17:07:56;9.00;;;2.67;;
30337;SDS011;17143;51.888;5.408;2022-10-30T17:23:06;8.40;;;2.20;;
30337;SDS011;17143;51.888;5.408;2022-10-30T17:38:15;6.20;;;3.17;;
30337;SDS011;17143;51.888;5.408;2022-10-30T17:53:18;8.97;;;2.73;;
30337;SDS011;17143;51.888;5.408;2022-10-30T18:08:21;9.47;;;4.10;;
30337;SDS011;17143;51.888;5.408;2022-10-30T18:23:23;12.53;;;4.40;;
30337;SDS011;17143;51.888;5.408;2022-10-30T18:38:25;8.57;;;4.60;;
30337;SDS011;17143;51.888;5.408;2022-10-30T18:53:27;12.07;;;4.63;;
30337;SDS011;17143;51.888;5.408;2022-10-30T19:08:29;7.10;;;3.73;;
30337;SDS011;17143;51.888;5.408;2022-10-30T19:23:31;7.10;;;4.20;;
30337;SDS011;17143;51.888;5.408;2022-10-30T19:38:33;20.30;;;4.57;;
30337;SDS011;17143;51.888;5.408;2022-10-30T19:53:35;7.93;;;3.00;;
30337;SDS011;17143;51.888;5.408;2022-10-30T20:08:37;5.77;;;2.90;;
30337;SDS011;17143;51.888;5.408;2022-10-30T20:23:39;9.27;;;3.57;;
30337;SDS011;17143;51.888;5.408;2022-10-30T20:38:41;11.17;;;4.23;;
30337;SDS011;17143;51.888;5.408;2022-10-30T20:53:43;16.10;;;4.70;;
30337;SDS011;17143;51.888;5.408;2022-10-30T21:08:45;8.13;;;4.30;;
30337;SDS011;17143;51.888;5.408;2022-10-30T21:23:47;13.20;;;4.70;;
30337;SDS011;17143;51.888;5.408;2022-10-30T21:38:49;8.53;;;4.13;;
30337;SDS011;17143;51.888;5.408;2022-10-30T21:53:51;8.87;;;3.90;;
30337;SDS011;17143;51.888;5.408;2022-10-30T22:08:56;9.33;;;3.67;;
30337;SDS011;17143;51.888;5.408;2022-10-30T22:23:59;7.93;;;4.20;;
30337;SDS011;17143;51.888;5.408;2022-10-30T22:39:02;6.53;;;4.17;;
30337;SDS011;17143;51.888;5.408;2022-10-30T22:54:06;14.47;;;4.40;;
30337;SDS011;17143;51.888;5.408;2022-10-30T23:09:14;6.17;;;3.60;;
30337;SDS011;17143;51.888;5.408;2022-10-30T23:24:16;9.83;;;4.17;;
30337;SDS011;17143;51.888;5.408;2022-10-30T23:39:18;6.73;;;3.73;;
30337;SDS011;17143;51.888;5.408;2022-10-30T23:54:20;6.50;;;3.90;;
